sensor_id;sensor_type;location;lat;lon;timestamp;P1;durP1;ratioP1;P2;durP2;ratioP2
16705;SDS011;8469;60.136;15.180;2023-09-19T00:00:06;4.03;;;3.50;;
16705;SDS011;8469;60.136;15.180;2023-09-19T00:02:33;5.85;;;3.50;;
16705;SDS011;8469;60.136;15.180;2023-09-19T00:05:02;6.47;;;3.80;;
16705;SDS011;8469;60.136;15.180;2023-09-19T00:07:30;7.62;;;4.05;;
16705;SDS011;8469;60.136;15.180;2023-09-19T00:09:57;8.70;;;3.92;;
16705;SDS011;8469;60.136;15.180;2023-09-19T00:12:24;10.53;;;3.60;;
16705;SDS011;8469;60.136;15.180;2023-09-19T00:14:51;7.17;;;3.75;;
16705;SDS011;8469;60.136;15.180;2023-09-19T00:17:19;8.33;;;3.40;;
16705;SDS011;8469;60.136;15.180;2023-09-19T00:19:46;5.83;;;3.60;;
16705;SDS011;8469;60.136;15.180;2023-09-19T00:22:15;6.42;;;3.60;;
16705;SDS011;8469;60.136;15.180;2023-09-19T00:24:43;6.28;;;3.55;;
16705;SDS011;8469;60.136;15.180;2023-09-19T00:27:12;4.17;;;3.62;;
16705;SDS011;8469;60.136;15.180;2023-09-19T00:29:39;4.97;;;3.40;;
16705;SDS011;8469;60.136;15.180;2023-09-19T00:32:07;4.95;;;3.12;;
16705;SDS011;8469;60.136;15.180;2023-09-19T00:34:34;7.12;;;3.30;;
16705;SDS011;8469;60.136;15.180;2023-09-19T00:37:02;3.77;;;3.30;;
16705;SDS011;8469;60.136;15.180;2023-09-19T00:39:30;3.30;;;3.00;;
16705;SDS011;8469;60.136;15.180;2023-09-19T00:41:57;3.67;;;2.92;;
16705;SDS011;8469;60.136;15.180;2023-09-19T00:44:26;3.02;;;2.80;;
16705;SDS011;8469;60.136;15.180;2023-09-19T00:46:54;4.67;;;2.60;;
16705;SDS011;8469;60.136;15.180;2023-09-19T00:49:21;3.90;;;2.47;;
16705;SDS011;8469;60.136;15.180;2023-09-19T00:51:48;3.10;;;2.77;;
16705;SDS011;8469;60.136;15.180;2023-09-19T00:54:16;4.30;;;2.72;;
16705;SDS011;8469;60.136;15.180;2023-09-19T00:56:45;2.87;;;2.58;;
16705;SDS011;8469;60.136;15.180;2023-09-19T00:59:12;4.47;;;2.50;;
16705;SDS011;8469;60.136;15.180;2023-09-19T01:01:40;3.05;;;2.58;;
16705;SDS011;8469;60.136;15.180;2023-09-19T01:04:07;3.52;;;2.40;;
16705;SDS011;8469;60.136;15.180;2023-09-19T01:06:35;3.05;;;2.10;;
16705;SDS011;8469;60.136;15.180;2023-09-19T01:09:03;4.75;;;2.30;;
16705;SDS011;8469;60.136;15.180;2023-09-19T01:16:48;2.25;;;1.90;;
16705;SDS011;8469;60.136;15.180;2023-09-19T01:21:44;3.70;;;2.07;;
16705;SDS011;8469;60.136;15.180;2023-09-19T01:31:39;2.35;;;1.95;;
16705;SDS011;8469;60.136;15.180;2023-09-19T01:34:07;2.83;;;2.25;;
16705;SDS011;8469;60.136;15.180;2023-09-19T01:36:35;3.15;;;2.02;;
16705;SDS011;8469;60.136;15.180;2023-09-19T01:39:07;2.70;;;2.02;;
16705;SDS011;8469;60.136;15.180;2023-09-19T01:41:51;1.92;;;1.82;;
16705;SDS011;8469;60.136;15.180;2023-09-19T01:44:24;1.80;;;1.70;;
16705;SDS011;8469;60.136;15.180;2023-09-19T01:46:47;2.10;;;1.90;;
16705;SDS011;8469;60.136;15.180;2023-09-19T01:49:18;1.80;;;1.70;;
16705;SDS011;8469;60.136;15.180;2023-09-19T01:52:02;2.10;;;2.00;;
16705;SDS011;8469;60.136;15.180;2023-09-19T01:54:33;2.30;;;1.80;;
16705;SDS011;8469;60.136;15.180;2023-09-19T01:56:59;2.02;;;1.87;;
16705;SDS011;8469;60.136;15.180;2023-09-19T01:59:28;1.50;;;1.40;;
16705;SDS011;8469;60.136;15.180;2023-09-19T02:01:56;1.92;;;1.55;;
16705;SDS011;8469;60.136;15.180;2023-09-19T02:04:25;3.08;;;1.90;;
16705;SDS011;8469;60.136;15.180;2023-09-19T02:06:53;1.98;;;1.60;;
16705;SDS011;8469;60.136;15.180;2023-09-19T02:09:21;1.83;;;1.60;;
16705;SDS011;8469;60.136;15.180;2023-09-19T02:11:49;2.47;;;1.65;;
16705;SDS011;8469;60.136;15.180;2023-09-19T02:14:16;1.90;;;1.80;;
16705;SDS011;8469;60.136;15.180;2023-09-19T02:16:45;1.87;;;1.77;;
16705;SDS011;8469;60.136;15.180;2023-09-19T02:19:12;2.05;;;1.95;;
16705;SDS011;8469;60.136;15.180;2023-09-19T02:21:39;2.52;;;1.92;;
16705;SDS011;8469;60.136;15.180;2023-09-19T02:24:07;2.47;;;2.00;;
16705;SDS011;8469;60.136;15.180;2023-09-19T02:26:34;2.10;;;1.95;;
16705;SDS011;8469;60.136;15.180;2023-09-19T02:29:03;1.90;;;1.80;;
16705;SDS011;8469;60.136;15.180;2023-09-19T02:31:31;2.10;;;1.90;;
16705;SDS011;8469;60.136;15.180;2023-09-19T02:33:58;2.27;;;2.08;;
16705;SDS011;8469;60.136;15.180;2023-09-19T02:36:26;2.25;;;1.90;;
16705;SDS011;8469;60.136;15.180;2023-09-19T02:38:53;2.17;;;1.80;;
16705;SDS011;8469;60.136;15.180;2023-09-19T02:41:20;2.33;;;1.98;;
16705;SDS011;8469;60.136;15.180;2023-09-19T02:43:48;2.17;;;2.00;;
16705;SDS011;8469;60.136;15.180;2023-09-19T02:46:15;1.98;;;1.80;;
16705;SDS011;8469;60.136;15.180;2023-09-19T02:48:43;2.10;;;2.00;;
16705;SDS011;8469;60.136;15.180;2023-09-19T02:51:10;1.87;;;1.75;;
16705;SDS011;8469;60.136;15.180;2023-09-19T02:53:37;1.80;;;1.70;;
16705;SDS011;8469;60.136;15.180;2023-09-19T02:56:06;1.95;;;1.85;;
16705;SDS011;8469;60.136;15.180;2023-09-19T02:58:33;1.90;;;1.80;;
16705;SDS011;8469;60.136;15.180;2023-09-19T03:01:12;2.08;;;1.90;;
16705;SDS011;8469;60.136;15.180;2023-09-19T03:03:37;1.95;;;1.70;;
16705;SDS011;8469;60.136;15.180;2023-09-19T03:06:06;1.87;;;1.77;;
16705;SDS011;8469;60.136;15.180;2023-09-19T03:08:35;1.60;;;1.50;;
16705;SDS011;8469;60.136;15.180;2023-09-19T03:11:05;1.72;;;1.62;;
16705;SDS011;8469;60.136;15.180;2023-09-19T03:13:33;1.80;;;1.70;;
16705;SDS011;8469;60.136;15.180;2023-09-19T03:16:08;1.80;;;1.70;;
16705;SDS011;8469;60.136;15.180;2023-09-19T03:18:33;1.90;;;1.80;;
16705;SDS011;8469;60.136;15.180;2023-09-19T03:21:01;2.10;;;1.72;;
16705;SDS011;8469;60.136;15.180;2023-09-19T03:23:28;1.90;;;1.80;;
16705;SDS011;8469;60.136;15.180;2023-09-19T03:25:56;1.93;;;1.83;;
16705;SDS011;8469;60.136;15.180;2023-09-19T03:28:25;2.00;;;1.90;;
16705;SDS011;8469;60.136;15.180;2023-09-19T03:30:58;1.90;;;1.80;;
16705;SDS011;8469;60.136;15.180;2023-09-19T03:33:26;2.45;;;2.25;;
16705;SDS011;8469;60.136;15.180;2023-09-19T03:35:54;2.10;;;2.00;;
16705;SDS011;8469;60.136;15.180;2023-09-19T03:38:23;2.10;;;2.00;;
16705;SDS011;8469;60.136;15.180;2023-09-19T03:40:50;2.00;;;1.80;;
16705;SDS011;8469;60.136;15.180;2023-09-19T03:43:18;2.30;;;1.90;;
16705;SDS011;8469;60.136;15.180;2023-09-19T03:45:45;2.10;;;1.90;;
16705;SDS011;8469;60.136;15.180;2023-09-19T03:48:13;1.70;;;1.60;;
16705;SDS011;8469;60.136;15.180;2023-09-19T03:50:40;3.08;;;1.80;;
16705;SDS011;8469;60.136;15.180;2023-09-19T03:53:09;1.90;;;1.80;;
16705;SDS011;8469;60.136;15.180;2023-09-19T03:55:37;1.72;;;1.62;;
16705;SDS011;8469;60.136;15.180;2023-09-19T03:58:06;2.00;;;1.80;;
16705;SDS011;8469;60.136;15.180;2023-09-19T04:00:33;1.80;;;1.70;;
16705;SDS011;8469;60.136;15.180;2023-09-19T04:03:01;2.10;;;1.90;;
16705;SDS011;8469;60.136;15.180;2023-09-19T04:05:29;1.72;;;1.62;;
16705;SDS011;8469;60.136;15.180;2023-09-19T04:07:57;2.08;;;1.98;;
16705;SDS011;8469;60.136;15.180;2023-09-19T04:10:25;1.80;;;1.70;;
16705;SDS011;8469;60.136;15.180;2023-09-19T04:12:52;2.92;;;1.80;;
16705;SDS011;8469;60.136;15.180;2023-09-19T04:15:21;1.90;;;1.80;;
16705;SDS011;8469;60.136;15.180;2023-09-19T04:17:50;1.90;;;1.80;;
16705;SDS011;8469;60.136;15.180;2023-09-19T04:20:18;2.00;;;1.90;;
16705;SDS011;8469;60.136;15.180;2023-09-19T04:22:51;2.30;;;2.10;;
16705;SDS011;8469;60.136;15.180;2023-09-19T04:25:19;2.50;;;2.30;;
16705;SDS011;8469;60.136;15.180;2023-09-19T04:27:47;2.60;;;2.40;;
16705;SDS011;8469;60.136;15.180;2023-09-19T04:30:14;3.67;;;2.50;;
16705;SDS011;8469;60.136;15.180;2023-09-19T04:32:42;3.05;;;2.75;;
16705;SDS011;8469;60.136;15.180;2023-09-19T04:35:10;4.43;;;2.77;;
16705;SDS011;8469;60.136;15.180;2023-09-19T04:37:38;4.50;;;2.90;;
16705;SDS011;8469;60.136;15.180;2023-09-19T04:40:06;3.40;;;3.10;;
16705;SDS011;8469;60.136;15.180;2023-09-19T04:42:35;3.40;;;3.10;;
16705;SDS011;8469;60.136;15.180;2023-09-19T04:45:03;3.33;;;3.02;;
16705;SDS011;8469;60.136;15.180;2023-09-19T04:47:31;3.35;;;3.05;;
16705;SDS011;8469;60.136;15.180;2023-09-19T04:49:58;3.85;;;3.12;;
16705;SDS011;8469;60.136;15.180;2023-09-19T04:52:25;3.70;;;3.40;;
16705;SDS011;8469;60.136;15.180;2023-09-19T04:54:53;3.95;;;3.45;;
16705;SDS011;8469;60.136;15.180;2023-09-19T04:57:20;5.70;;;3.62;;
16705;SDS011;8469;60.136;15.180;2023-09-19T04:59:47;5.75;;;3.87;;
16705;SDS011;8469;60.136;15.180;2023-09-19T05:02:15;5.17;;;3.72;;
16705;SDS011;8469;60.136;15.180;2023-09-19T05:04:42;4.92;;;3.98;;
16705;SDS011;8469;60.136;15.180;2023-09-19T05:07:10;9.30;;;4.60;;
16705;SDS011;8469;60.136;15.180;2023-09-19T05:09:37;6.17;;;4.40;;
16705;SDS011;8469;60.136;15.180;2023-09-19T05:12:05;4.92;;;4.12;;
16705;SDS011;8469;60.136;15.180;2023-09-19T05:14:32;6.65;;;4.10;;
16705;SDS011;8469;60.136;15.180;2023-09-19T05:17:00;5.90;;;4.28;;
16705;SDS011;8469;60.136;15.180;2023-09-19T05:19:27;5.72;;;4.30;;
16705;SDS011;8469;60.136;15.180;2023-09-19T05:21:54;4.83;;;4.23;;
16705;SDS011;8469;60.136;15.180;2023-09-19T05:24:22;6.25;;;4.55;;
16705;SDS011;8469;60.136;15.180;2023-09-19T05:26:49;5.75;;;4.33;;
16705;SDS011;8469;60.136;15.180;2023-09-19T05:29:17;7.22;;;4.47;;
16705;SDS011;8469;60.136;15.180;2023-09-19T05:31:44;5.58;;;4.35;;
16705;SDS011;8469;60.136;15.180;2023-09-19T05:34:12;10.10;;;4.65;;
16705;SDS011;8469;60.136;15.180;2023-09-19T05:36:39;6.40;;;4.50;;
16705;SDS011;8469;60.136;15.180;2023-09-19T05:39:07;5.42;;;4.65;;
16705;SDS011;8469;60.136;15.180;2023-09-19T05:41:36;6.27;;;4.77;;
16705;SDS011;8469;60.136;15.180;2023-09-19T05:44:05;7.42;;;5.10;;
16705;SDS011;8469;60.136;15.180;2023-09-19T05:46:33;8.93;;;5.20;;
16705;SDS011;8469;60.136;15.180;2023-09-19T05:49:01;11.35;;;5.60;;
16705;SDS011;8469;60.136;15.180;2023-09-19T05:51:29;13.13;;;6.00;;
16705;SDS011;8469;60.136;15.180;2023-09-19T05:53:56;12.63;;;5.65;;
16705;SDS011;8469;60.136;15.180;2023-09-19T05:56:24;11.48;;;6.10;;
16705;SDS011;8469;60.136;15.180;2023-09-19T05:58:51;12.35;;;5.92;;
16705;SDS011;8469;60.136;15.180;2023-09-19T06:01:19;12.82;;;6.55;;
16705;SDS011;8469;60.136;15.180;2023-09-19T06:03:46;13.53;;;6.97;;
16705;SDS011;8469;60.136;15.180;2023-09-19T06:06:14;12.93;;;7.25;;
16705;SDS011;8469;60.136;15.180;2023-09-19T06:08:41;16.32;;;8.53;;
16705;SDS011;8469;60.136;15.180;2023-09-19T06:11:10;14.10;;;7.80;;
16705;SDS011;8469;60.136;15.180;2023-09-19T06:13:37;21.37;;;9.05;;
16705;SDS011;8469;60.136;15.180;2023-09-19T06:16:10;20.97;;;9.27;;
16705;SDS011;8469;60.136;15.180;2023-09-19T06:18:35;25.75;;;9.75;;
16705;SDS011;8469;60.136;15.180;2023-09-19T06:21:07;25.35;;;9.60;;
16705;SDS011;8469;60.136;15.180;2023-09-19T06:23:34;18.97;;;9.03;;
16705;SDS011;8469;60.136;15.180;2023-09-19T06:26:01;20.87;;;9.20;;
16705;SDS011;8469;60.136;15.180;2023-09-19T06:28:30;18.17;;;9.33;;
16705;SDS011;8469;60.136;15.180;2023-09-19T06:31:01;18.53;;;9.60;;
16705;SDS011;8469;60.136;15.180;2023-09-19T06:33:28;21.90;;;9.63;;
16705;SDS011;8469;60.136;15.180;2023-09-19T06:35:57;18.90;;;9.88;;
16705;SDS011;8469;60.136;15.180;2023-09-19T06:38:25;17.77;;;9.33;;
16705;SDS011;8469;60.136;15.180;2023-09-19T06:40:53;17.35;;;8.93;;
16705;SDS011;8469;60.136;15.180;2023-09-19T06:43:20;16.07;;;9.30;;
16705;SDS011;8469;60.136;15.180;2023-09-19T06:45:48;17.13;;;8.87;;
16705;SDS011;8469;60.136;15.180;2023-09-19T06:48:16;14.68;;;8.80;;
16705;SDS011;8469;60.136;15.180;2023-09-19T06:50:44;15.70;;;8.50;;
16705;SDS011;8469;60.136;15.180;2023-09-19T06:53:11;12.37;;;8.20;;
16705;SDS011;8469;60.136;15.180;2023-09-19T06:55:39;14.25;;;8.73;;
16705;SDS011;8469;60.136;15.180;2023-09-19T06:58:06;15.05;;;8.73;;
16705;SDS011;8469;60.136;15.180;2023-09-19T07:00:34;12.47;;;8.70;;
16705;SDS011;8469;60.136;15.180;2023-09-19T07:03:08;14.03;;;9.05;;
16705;SDS011;8469;60.136;15.180;2023-09-19T07:05:34;13.35;;;9.45;;
16705;SDS011;8469;60.136;15.180;2023-09-19T07:08:06;13.32;;;9.18;;
16705;SDS011;8469;60.136;15.180;2023-09-19T07:10:35;14.10;;;9.70;;
16705;SDS011;8469;60.136;15.180;2023-09-19T07:13:03;16.90;;;9.30;;
16705;SDS011;8469;60.136;15.180;2023-09-19T07:15:32;17.30;;;10.10;;
16705;SDS011;8469;60.136;15.180;2023-09-19T07:18:02;18.32;;;9.90;;
16705;SDS011;8469;60.136;15.180;2023-09-19T07:20:31;14.73;;;9.68;;
16705;SDS011;8469;60.136;15.180;2023-09-19T07:22:58;17.17;;;10.47;;
16705;SDS011;8469;60.136;15.180;2023-09-19T07:25:26;14.45;;;10.20;;
16705;SDS011;8469;60.136;15.180;2023-09-19T07:27:56;14.18;;;10.18;;
16705;SDS011;8469;60.136;15.180;2023-09-19T07:30:26;16.13;;;10.33;;
16705;SDS011;8469;60.136;15.180;2023-09-19T07:32:53;14.45;;;10.03;;
16705;SDS011;8469;60.136;15.180;2023-09-19T07:35:21;12.73;;;9.88;;
16705;SDS011;8469;60.136;15.180;2023-09-19T07:37:48;14.40;;;10.38;;
16705;SDS011;8469;60.136;15.180;2023-09-19T07:40:16;15.15;;;10.00;;
16705;SDS011;8469;60.136;15.180;2023-09-19T07:42:43;15.18;;;10.55;;
16705;SDS011;8469;60.136;15.180;2023-09-19T07:45:12;17.10;;;10.40;;
16705;SDS011;8469;60.136;15.180;2023-09-19T07:47:47;20.03;;;10.53;;
16705;SDS011;8469;60.136;15.180;2023-09-19T07:50:15;16.73;;;10.98;;
16705;SDS011;8469;60.136;15.180;2023-09-19T07:52:44;18.13;;;10.70;;
16705;SDS011;8469;60.136;15.180;2023-09-19T07:55:12;15.20;;;10.10;;
16705;SDS011;8469;60.136;15.180;2023-09-19T07:57:41;17.57;;;10.38;;
16705;SDS011;8469;60.136;15.180;2023-09-19T08:00:09;14.45;;;10.48;;
16705;SDS011;8469;60.136;15.180;2023-09-19T08:02:39;16.87;;;10.50;;
16705;SDS011;8469;60.136;15.180;2023-09-19T08:05:08;14.68;;;9.60;;
16705;SDS011;8469;60.136;15.180;2023-09-19T08:07:42;15.45;;;9.90;;
16705;SDS011;8469;60.136;15.180;2023-09-19T08:10:09;14.20;;;9.53;;
16705;SDS011;8469;60.136;15.180;2023-09-19T08:12:42;13.98;;;9.38;;
16705;SDS011;8469;60.136;15.180;2023-09-19T08:15:16;15.32;;;9.98;;
16705;SDS011;8469;60.136;15.180;2023-09-19T08:17:40;14.18;;;9.33;;
16705;SDS011;8469;60.136;15.180;2023-09-19T08:20:08;13.90;;;9.30;;
16705;SDS011;8469;60.136;15.180;2023-09-19T08:22:37;14.45;;;9.45;;
16705;SDS011;8469;60.136;15.180;2023-09-19T08:25:04;17.35;;;9.10;;
16705;SDS011;8469;60.136;15.180;2023-09-19T08:27:33;15.23;;;9.35;;
16705;SDS011;8469;60.136;15.180;2023-09-19T08:30:01;12.58;;;8.65;;
16705;SDS011;8469;60.136;15.180;2023-09-19T08:32:29;14.40;;;9.18;;
16705;SDS011;8469;60.136;15.180;2023-09-19T08:34:56;10.57;;;8.43;;
16705;SDS011;8469;60.136;15.180;2023-09-19T08:37:23;15.90;;;8.23;;
16705;SDS011;8469;60.136;15.180;2023-09-19T08:39:51;14.35;;;8.13;;
16705;SDS011;8469;60.136;15.180;2023-09-19T08:42:18;11.33;;;8.33;;
16705;SDS011;8469;60.136;15.180;2023-09-19T08:44:47;11.08;;;8.18;;
16705;SDS011;8469;60.136;15.180;2023-09-19T08:47:15;10.60;;;8.00;;
16705;SDS011;8469;60.136;15.180;2023-09-19T08:52:31;11.73;;;7.22;;
16705;SDS011;8469;60.136;15.180;2023-09-19T08:54:58;11.70;;;6.10;;
16705;SDS011;8469;60.136;15.180;2023-09-19T08:57:28;7.90;;;5.90;;
16705;SDS011;8469;60.136;15.180;2023-09-19T08:59:56;10.35;;;5.85;;
16705;SDS011;8469;60.136;15.180;2023-09-19T09:02:25;7.97;;;5.90;;
16705;SDS011;8469;60.136;15.180;2023-09-19T09:04:53;9.90;;;5.90;;
16705;SDS011;8469;60.136;15.180;2023-09-19T09:07:21;9.43;;;5.67;;
16705;SDS011;8469;60.136;15.180;2023-09-19T09:09:49;7.83;;;5.43;;
16705;SDS011;8469;60.136;15.180;2023-09-19T09:12:16;7.58;;;4.75;;
16705;SDS011;8469;60.136;15.180;2023-09-19T09:14:44;6.47;;;4.10;;
16705;SDS011;8469;60.136;15.180;2023-09-19T09:17:13;4.70;;;3.37;;
16705;SDS011;8469;60.136;15.180;2023-09-19T09:19:41;7.78;;;3.47;;
16705;SDS011;8469;60.136;15.180;2023-09-19T09:22:09;4.47;;;2.50;;
16705;SDS011;8469;60.136;15.180;2023-09-19T09:24:37;5.60;;;3.05;;
16705;SDS011;8469;60.136;15.180;2023-09-19T09:27:06;3.60;;;2.67;;
16705;SDS011;8469;60.136;15.180;2023-09-19T09:29:44;3.40;;;2.65;;
16705;SDS011;8469;60.136;15.180;2023-09-19T09:32:31;4.35;;;2.72;;
16705;SDS011;8469;60.136;15.180;2023-09-19T09:34:45;3.90;;;2.30;;
16705;SDS011;8469;60.136;15.180;2023-09-19T09:37:15;5.33;;;2.10;;
16705;SDS011;8469;60.136;15.180;2023-09-19T09:39:56;3.33;;;2.30;;
16705;SDS011;8469;60.136;15.180;2023-09-19T09:42:31;2.83;;;2.40;;
16705;SDS011;8469;60.136;15.180;2023-09-19T09:47:44;3.02;;;2.10;;
16705;SDS011;8469;60.136;15.180;2023-09-19T09:50:29;2.87;;;2.20;;
16705;SDS011;8469;60.136;15.180;2023-09-19T09:52:57;2.80;;;2.20;;
16705;SDS011;8469;60.136;15.180;2023-09-19T09:56:09;2.25;;;2.02;;
16705;SDS011;8469;60.136;15.180;2023-09-19T09:58:16;4.22;;;2.33;;
16705;SDS011;8469;60.136;15.180;2023-09-19T10:00:54;4.50;;;2.08;;
16705;SDS011;8469;60.136;15.180;2023-09-19T10:03:32;3.45;;;2.10;;
16705;SDS011;8469;60.136;15.180;2023-09-19T10:06:02;2.02;;;1.80;;
16705;SDS011;8469;60.136;15.180;2023-09-19T10:08:31;3.40;;;1.80;;
16705;SDS011;8469;60.136;15.180;2023-09-19T10:10:58;1.60;;;1.50;;
16705;SDS011;8469;60.136;15.180;2023-09-19T10:13:28;1.95;;;1.42;;
16705;SDS011;8469;60.136;15.180;2023-09-19T10:15:57;3.27;;;1.60;;
16705;SDS011;8469;60.136;15.180;2023-09-19T10:18:26;1.42;;;1.35;;
16705;SDS011;8469;60.136;15.180;2023-09-19T10:20:58;1.50;;;1.40;;
16705;SDS011;8469;60.136;15.180;2023-09-19T10:23:26;2.25;;;1.40;;
16705;SDS011;8469;60.136;15.180;2023-09-19T10:25:56;1.70;;;1.22;;
16705;SDS011;8469;60.136;15.180;2023-09-19T10:28:24;2.40;;;1.20;;
16705;SDS011;8469;60.136;15.180;2023-09-19T10:30:54;2.67;;;1.50;;
16705;SDS011;8469;60.136;15.180;2023-09-19T10:33:23;3.52;;;1.60;;
16705;SDS011;8469;60.136;15.180;2023-09-19T10:35:53;3.00;;;1.30;;
16705;SDS011;8469;60.136;15.180;2023-09-19T10:38:26;3.62;;;1.20;;
16705;SDS011;8469;60.136;15.180;2023-09-19T10:40:55;2.77;;;1.20;;
16705;SDS011;8469;60.136;15.180;2023-09-19T10:43:25;3.80;;;1.10;;
16705;SDS011;8469;60.136;15.180;2023-09-19T10:45:53;1.87;;;1.20;;
16705;SDS011;8469;60.136;15.180;2023-09-19T10:48:21;2.42;;;1.42;;
16705;SDS011;8469;60.136;15.180;2023-09-19T10:51:05;2.90;;;1.40;;
16705;SDS011;8469;60.136;15.180;2023-09-19T10:53:29;3.40;;;1.10;;
16705;SDS011;8469;60.136;15.180;2023-09-19T10:55:59;2.80;;;0.85;;
16705;SDS011;8469;60.136;15.180;2023-09-19T10:58:27;1.00;;;0.75;;
16705;SDS011;8469;60.136;15.180;2023-09-19T11:00:59;0.65;;;0.62;;
16705;SDS011;8469;60.136;15.180;2023-09-19T11:03:34;3.30;;;0.80;;
16705;SDS011;8469;60.136;15.180;2023-09-19T11:06:04;3.55;;;0.80;;
16705;SDS011;8469;60.136;15.180;2023-09-19T11:08:52;2.33;;;0.97;;
16705;SDS011;8469;60.136;15.180;2023-09-19T11:11:39;1.98;;;0.90;;
16705;SDS011;8469;60.136;15.180;2023-09-19T11:14:28;1.00;;;0.88;;
16705;SDS011;8469;60.136;15.180;2023-09-19T11:22:15;1.72;;;0.75;;
16705;SDS011;8469;60.136;15.180;2023-09-19T11:24:42;1.80;;;1.00;;
16705;SDS011;8469;60.136;15.180;2023-09-19T11:27:10;2.00;;;0.90;;
16705;SDS011;8469;60.136;15.180;2023-09-19T11:29:41;1.98;;;0.90;;
16705;SDS011;8469;60.136;15.180;2023-09-19T11:32:08;2.30;;;1.00;;
16705;SDS011;8469;60.136;15.180;2023-09-19T11:39:40;3.50;;;1.10;;
16705;SDS011;8469;60.136;15.180;2023-09-19T11:44:53;1.70;;;0.80;;
16705;SDS011;8469;60.136;15.180;2023-09-19T11:47:22;1.77;;;1.00;;
16705;SDS011;8469;60.136;15.180;2023-09-19T11:49:51;2.33;;;1.00;;
16705;SDS011;8469;60.136;15.180;2023-09-19T11:52:24;2.15;;;1.17;;
16705;SDS011;8469;60.136;15.180;2023-09-19T11:54:56;1.72;;;1.12;;
16705;SDS011;8469;60.136;15.180;2023-09-19T11:57:24;2.20;;;1.10;;
16705;SDS011;8469;60.136;15.180;2023-09-19T11:59:52;5.93;;;1.30;;
16705;SDS011;8469;60.136;15.180;2023-09-19T12:02:42;3.22;;;1.07;;
16705;SDS011;8469;60.136;15.180;2023-09-19T12:04:53;3.33;;;1.37;;
16705;SDS011;8469;60.136;15.180;2023-09-19T12:07:18;2.00;;;1.20;;
16705;SDS011;8469;60.136;15.180;2023-09-19T12:09:48;3.80;;;1.60;;
16705;SDS011;8469;60.136;15.180;2023-09-19T12:12:23;3.73;;;1.57;;
16705;SDS011;8469;60.136;15.180;2023-09-19T12:14:48;3.87;;;1.30;;
16705;SDS011;8469;60.136;15.180;2023-09-19T12:17:17;3.50;;;1.50;;
16705;SDS011;8469;60.136;15.180;2023-09-19T12:19:50;3.55;;;1.60;;
16705;SDS011;8469;60.136;15.180;2023-09-19T12:22:15;2.62;;;1.60;;
16705;SDS011;8469;60.136;15.180;2023-09-19T12:24:44;3.60;;;1.57;;
16705;SDS011;8469;60.136;15.180;2023-09-19T12:27:12;3.83;;;1.55;;
16705;SDS011;8469;60.136;15.180;2023-09-19T12:29:43;11.08;;;1.87;;
16705;SDS011;8469;60.136;15.180;2023-09-19T12:32:10;3.07;;;1.60;;
16705;SDS011;8469;60.136;15.180;2023-09-19T12:34:38;6.37;;;1.50;;
16705;SDS011;8469;60.136;15.180;2023-09-19T12:37:13;6.83;;;1.50;;
16705;SDS011;8469;60.136;15.180;2023-09-19T12:39:43;2.55;;;1.40;;
16705;SDS011;8469;60.136;15.180;2023-09-19T12:42:12;3.83;;;1.47;;
16705;SDS011;8469;60.136;15.180;2023-09-19T12:44:40;6.80;;;1.55;;
16705;SDS011;8469;60.136;15.180;2023-09-19T12:47:09;3.47;;;1.60;;
16705;SDS011;8469;60.136;15.180;2023-09-19T12:50:04;5.87;;;1.80;;
16705;SDS011;8469;60.136;15.180;2023-09-19T12:52:06;3.52;;;1.55;;
16705;SDS011;8469;60.136;15.180;2023-09-19T12:54:39;3.40;;;1.50;;
16705;SDS011;8469;60.136;15.180;2023-09-19T12:57:07;3.45;;;1.50;;
16705;SDS011;8469;60.136;15.180;2023-09-19T12:59:34;4.85;;;1.92;;
16705;SDS011;8469;60.136;15.180;2023-09-19T13:02:04;7.65;;;1.87;;
16705;SDS011;8469;60.136;15.180;2023-09-19T13:04:36;4.42;;;1.60;;
16705;SDS011;8469;60.136;15.180;2023-09-19T13:07:04;5.47;;;1.50;;
16705;SDS011;8469;60.136;15.180;2023-09-19T13:09:33;5.78;;;1.57;;
16705;SDS011;8469;60.136;15.180;2023-09-19T13:12:01;5.00;;;1.60;;
16705;SDS011;8469;60.136;15.180;2023-09-19T13:14:30;2.52;;;1.40;;
16705;SDS011;8469;60.136;15.180;2023-09-19T13:17:05;3.65;;;1.50;;
16705;SDS011;8469;60.136;15.180;2023-09-19T13:19:35;5.78;;;1.80;;
16705;SDS011;8469;60.136;15.180;2023-09-19T13:22:03;3.52;;;1.50;;
16705;SDS011;8469;60.136;15.180;2023-09-19T13:24:30;7.62;;;2.47;;
16705;SDS011;8469;60.136;15.180;2023-09-19T13:26:59;3.90;;;1.40;;
16705;SDS011;8469;60.136;15.180;2023-09-19T13:29:26;5.40;;;2.10;;
16705;SDS011;8469;60.136;15.180;2023-09-19T13:31:55;3.60;;;1.40;;
16705;SDS011;8469;60.136;15.180;2023-09-19T13:34:23;2.33;;;1.20;;
16705;SDS011;8469;60.136;15.180;2023-09-19T13:36:51;5.80;;;1.40;;
16705;SDS011;8469;60.136;15.180;2023-09-19T13:39:18;2.70;;;1.40;;
16705;SDS011;8469;60.136;15.180;2023-09-19T13:41:50;3.87;;;1.55;;
16705;SDS011;8469;60.136;15.180;2023-09-19T13:44:15;3.83;;;1.57;;
16705;SDS011;8469;60.136;15.180;2023-09-19T13:46:43;3.25;;;1.22;;
16705;SDS011;8469;60.136;15.180;2023-09-19T13:49:12;4.10;;;1.30;;
16705;SDS011;8469;60.136;15.180;2023-09-19T13:51:40;3.12;;;1.50;;
16705;SDS011;8469;60.136;15.180;2023-09-19T13:54:09;4.00;;;1.62;;
16705;SDS011;8469;60.136;15.180;2023-09-19T13:56:38;5.00;;;1.80;;
16705;SDS011;8469;60.136;15.180;2023-09-19T13:59:05;5.75;;;1.40;;
16705;SDS011;8469;60.136;15.180;2023-09-19T14:01:32;3.90;;;1.40;;
16705;SDS011;8469;60.136;15.180;2023-09-19T14:04:00;2.67;;;1.25;;
16705;SDS011;8469;60.136;15.180;2023-09-19T14:06:28;2.83;;;1.37;;
16705;SDS011;8469;60.136;15.180;2023-09-19T14:08:56;3.35;;;1.50;;
16705;SDS011;8469;60.136;15.180;2023-09-19T14:11:23;2.27;;;1.30;;
16705;SDS011;8469;60.136;15.180;2023-09-19T14:13:51;3.75;;;1.40;;
16705;SDS011;8469;60.136;15.180;2023-09-19T14:16:18;3.33;;;1.50;;
16705;SDS011;8469;60.136;15.180;2023-09-19T14:18:47;4.12;;;1.50;;
16705;SDS011;8469;60.136;15.180;2023-09-19T14:21:14;7.50;;;1.70;;
16705;SDS011;8469;60.136;15.180;2023-09-19T14:23:41;3.80;;;1.32;;
16705;SDS011;8469;60.136;15.180;2023-09-19T14:26:09;3.33;;;1.67;;
16705;SDS011;8469;60.136;15.180;2023-09-19T14:28:37;3.47;;;1.25;;
16705;SDS011;8469;60.136;15.180;2023-09-19T14:31:05;2.80;;;1.37;;
16705;SDS011;8469;60.136;15.180;2023-09-19T14:33:33;3.98;;;1.47;;
16705;SDS011;8469;60.136;15.180;2023-09-19T14:36:04;4.03;;;1.20;;
16705;SDS011;8469;60.136;15.180;2023-09-19T14:38:34;3.45;;;1.25;;
16705;SDS011;8469;60.136;15.180;2023-09-19T14:41:02;2.80;;;1.22;;
16705;SDS011;8469;60.136;15.180;2023-09-19T14:43:29;9.70;;;1.52;;
16705;SDS011;8469;60.136;15.180;2023-09-19T14:45:56;4.50;;;1.30;;
16705;SDS011;8469;60.136;15.180;2023-09-19T14:48:24;2.60;;;1.30;;
16705;SDS011;8469;60.136;15.180;2023-09-19T14:50:52;2.00;;;1.17;;
16705;SDS011;8469;60.136;15.180;2023-09-19T14:53:21;3.45;;;1.00;;
16705;SDS011;8469;60.136;15.180;2023-09-19T14:55:48;5.47;;;1.45;;
16705;SDS011;8469;60.136;15.180;2023-09-19T14:58:17;4.10;;;1.13;;
16705;SDS011;8469;60.136;15.180;2023-09-19T15:00:45;1.90;;;1.05;;
16705;SDS011;8469;60.136;15.180;2023-09-19T15:03:12;6.12;;;1.30;;
16705;SDS011;8469;60.136;15.180;2023-09-19T15:05:41;2.98;;;1.10;;
16705;SDS011;8469;60.136;15.180;2023-09-19T15:08:08;7.05;;;1.30;;
16705;SDS011;8469;60.136;15.180;2023-09-19T15:10:37;4.58;;;1.30;;
16705;SDS011;8469;60.136;15.180;2023-09-19T15:13:04;5.42;;;1.20;;
16705;SDS011;8469;60.136;15.180;2023-09-19T15:15:31;6.40;;;1.30;;
16705;SDS011;8469;60.136;15.180;2023-09-19T15:17:59;7.92;;;1.42;;
16705;SDS011;8469;60.136;15.180;2023-09-19T15:20:26;3.22;;;1.57;;
16705;SDS011;8469;60.136;15.180;2023-09-19T15:22:54;4.87;;;1.35;;
16705;SDS011;8469;60.136;15.180;2023-09-19T15:25:21;3.90;;;1.30;;